createdAt,value
2018-03-01T00:01:23.844Z,7.65
2018-03-01T00:03:51.292Z,9.70
2018-03-01T00:06:18.746Z,8.50
2018-03-01T00:08:46.192Z,8.32
2018-03-01T00:11:13.660Z,8.02
2018-03-01T00:13:41.100Z,7.22
2018-03-01T00:16:08.545Z,10.10
2018-03-01T00:18:36.773Z,10.60
2018-03-01T00:21:04.228Z,8.55
2018-03-01T00:23:31.691Z,9.63
2018-03-01T00:25:59.140Z,8.53
2018-03-01T00:28:26.598Z,9.20
2018-03-01T00:30:54.822Z,7.85
2018-03-01T00:33:22.273Z,10.70
2018-03-01T00:35:50.487Z,8.75
2018-03-01T00:38:17.928Z,9.00
2018-03-01T00:40:45.373Z,7.97
2018-03-01T00:43:14.781Z,6.60
2018-03-01T00:45:42.244Z,9.80
2018-03-01T00:48:09.688Z,6.90
2018-03-01T00:50:37.132Z,9.43
2018-03-01T00:53:05.363Z,10.47
2018-03-01T00:55:32.787Z,9.10
2018-03-01T00:58:00.236Z,7.47
2018-03-01T01:00:28.438Z,9.03
2018-03-01T01:02:55.893Z,8.63
2018-03-01T01:05:23.349Z,9.40
2018-03-01T01:07:50.792Z,7.93
2018-03-01T01:10:21.401Z,8.83
2018-03-01T01:12:49.635Z,9.30
2018-03-01T01:15:17.092Z,8.03
2018-03-01T01:17:44.540Z,8.45
2018-03-01T01:20:12.062Z,8.50
2018-03-01T01:22:40.269Z,7.77
2018-03-01T01:25:07.725Z,8.73
2018-03-01T01:27:35.180Z,9.63
2018-03-01T01:30:02.621Z,9.00
2018-03-01T01:32:30.067Z,7.73
2018-03-01T01:34:57.510Z,9.60
2018-03-01T01:37:25.726Z,9.18
2018-03-01T01:39:53.183Z,9.33
2018-03-01T01:42:20.641Z,7.90
2018-03-01T01:44:48.098Z,10.00
2018-03-01T01:47:15.540Z,6.30
2018-03-01T01:49:42.984Z,8.95
2018-03-01T01:52:10.424Z,8.63
2018-03-01T01:54:38.628Z,8.13
2018-03-01T01:57:06.098Z,10.07
2018-03-01T01:59:33.515Z,7.30
2018-03-01T02:02:01.729Z,9.10
2018-03-01T02:04:29.175Z,8.63
2018-03-01T02:06:56.624Z,8.32
2018-03-01T02:09:24.064Z,9.17
2018-03-01T02:11:52.280Z,6.40
2018-03-01T02:14:19.737Z,8.07
2018-03-01T02:16:47.174Z,9.47
2018-03-01T02:19:14.620Z,5.20
2018-03-01T02:21:42.841Z,8.57
2018-03-01T02:24:10.353Z,8.40
2018-03-01T02:26:38.570Z,7.07
2018-03-01T02:29:06.029Z,9.03
2018-03-01T02:31:33.476Z,9.00
2018-03-01T02:34:00.945Z,8.07
2018-03-01T02:36:33.346Z,6.57
2018-03-01T02:39:00.848Z,8.70
2018-03-01T02:41:28.389Z,7.40
2018-03-01T02:43:56.604Z,8.87
2018-03-01T02:46:24.057Z,9.13
2018-03-01T02:48:51.512Z,6.83
2018-03-01T02:51:18.952Z,8.13
2018-03-01T02:53:46.391Z,8.00
2018-03-01T02:56:14.610Z,8.13
2018-03-01T02:58:42.073Z,8.50
2018-03-01T03:01:09.536Z,8.40
2018-03-01T03:03:36.986Z,9.90
2018-03-01T03:06:04.439Z,8.38
2018-03-01T03:08:31.972Z,9.67
2018-03-01T03:10:59.414Z,8.65
2018-03-01T03:13:27.640Z,8.48
2018-03-01T03:15:55.088Z,8.80
2018-03-01T03:18:22.529Z,8.40
2018-03-01T03:20:49.984Z,7.87
2018-03-01T03:23:17.454Z,8.05
2018-03-01T03:25:44.918Z,9.65
2018-03-01T03:28:12.376Z,8.32
2018-03-01T03:30:40.589Z,7.72
2018-03-01T03:33:08.096Z,7.50
2018-03-01T03:35:35.541Z,9.18
2018-03-01T03:38:03.093Z,9.30
2018-03-01T03:40:30.546Z,8.70
2018-03-01T03:42:58.028Z,9.77
2018-03-01T03:45:25.567Z,10.45
2018-03-01T03:47:53.016Z,9.93
2018-03-01T03:50:20.472Z,8.27
2018-03-01T03:52:47.921Z,10.23
2018-03-01T03:55:16.141Z,8.43
2018-03-01T03:57:43.597Z,8.32
2018-03-01T04:00:11.050Z,9.80
2018-03-01T04:02:38.498Z,9.32
2018-03-01T04:05:05.960Z,9.77
2018-03-01T04:07:33.418Z,7.25
2018-03-01T04:10:00.886Z,9.97
2018-03-01T04:12:28.348Z,8.73
2018-03-01T04:14:55.807Z,9.85
2018-03-01T04:17:23.261Z,7.65
2018-03-01T04:19:50.728Z,9.95
2018-03-01T04:22:18.180Z,8.57
2018-03-01T04:24:45.700Z,9.23
2018-03-01T04:27:13.142Z,8.68
2018-03-01T04:29:41.384Z,10.40
2018-03-01T04:32:08.838Z,8.10
2018-03-01T04:34:36.367Z,8.20
2018-03-01T04:37:03.825Z,8.90
2018-03-01T04:39:31.304Z,8.20
2018-03-01T04:41:58.770Z,7.97
2018-03-01T04:44:26.310Z,8.80
2018-03-01T04:46:53.798Z,8.95
2018-03-01T04:49:21.268Z,9.27
2018-03-01T04:51:48.731Z,8.90
2018-03-01T04:54:16.197Z,9.68
2018-03-01T04:56:43.642Z,9.13
2018-03-01T04:59:11.109Z,8.53
2018-03-01T05:01:39.421Z,8.65
2018-03-01T05:04:06.888Z,8.10
2018-03-01T05:06:34.325Z,8.50
2018-03-01T05:09:01.892Z,8.18
2018-03-01T05:11:29.346Z,9.63
2018-03-01T05:13:56.814Z,8.13
2018-03-01T05:16:24.276Z,9.27
2018-03-01T05:18:51.787Z,9.40
2018-03-01T05:21:19.225Z,8.40
2018-03-01T05:23:46.690Z,7.07
2018-03-01T05:26:14.176Z,6.18
2018-03-01T05:28:42.410Z,9.93
2018-03-01T05:31:09.865Z,8.15
2018-03-01T05:33:37.333Z,9.70
2018-03-01T05:36:04.787Z,7.78
2018-03-01T05:38:32.260Z,6.50
2018-03-01T05:41:00.334Z,9.80
2018-03-01T05:43:28.577Z,6.15
2018-03-01T05:45:56.241Z,7.18
2018-03-01T05:48:23.710Z,8.45
2018-03-01T05:50:51.937Z,6.53
2018-03-01T05:53:19.407Z,7.93
2018-03-01T05:55:46.852Z,7.80
2018-03-01T05:58:14.408Z,8.07
2018-03-01T06:00:42.701Z,7.67
2018-03-01T06:03:10.258Z,7.70
2018-03-01T06:05:37.740Z,7.15
2018-03-01T06:08:05.453Z,8.77
2018-03-01T06:10:32.978Z,7.37
2018-03-01T06:13:01.199Z,8.13
2018-03-01T06:15:28.690Z,8.93
2018-03-01T06:17:56.142Z,8.10
2018-03-01T06:20:23.613Z,10.07
2018-03-01T06:22:51.071Z,6.87
2018-03-01T06:25:19.661Z,7.50
2018-03-01T06:27:47.129Z,6.73
2018-03-01T06:30:14.615Z,8.00
2018-03-01T06:32:42.112Z,7.05
2018-03-01T06:35:09.659Z,7.53
2018-03-01T06:37:37.115Z,8.80
2018-03-01T06:40:04.727Z,8.75
2018-03-01T06:42:32.321Z,8.15
2018-03-01T06:45:01.626Z,7.57
2018-03-01T06:47:29.098Z,7.83
2018-03-01T06:49:56.561Z,7.83
2018-03-01T06:52:24.017Z,8.30
2018-03-01T06:54:51.476Z,7.68
2018-03-01T06:57:18.939Z,7.83
2018-03-01T06:59:46.384Z,8.57
2018-03-01T07:02:13.866Z,8.07
2018-03-01T07:04:41.339Z,8.73
2018-03-01T07:07:08.799Z,8.27
2018-03-01T07:09:36.251Z,8.97
2018-03-01T07:12:03.712Z,4.63
2018-03-01T07:14:31.171Z,7.07
2018-03-01T07:16:58.658Z,8.40
2018-03-01T07:19:26.084Z,7.53
2018-03-01T07:21:53.547Z,6.73
2018-03-01T07:24:21.011Z,6.90
2018-03-01T07:26:48.506Z,5.85
2018-03-01T07:29:16.729Z,7.20
2018-03-01T07:31:45.350Z,6.07
2018-03-01T07:34:12.802Z,5.80
2018-03-01T07:36:40.260Z,5.97
2018-03-01T07:39:07.718Z,8.03
2018-03-01T07:41:35.937Z,6.43
2018-03-01T07:44:03.387Z,7.90
2018-03-01T07:46:30.850Z,5.93
2018-03-01T07:48:58.339Z,7.20
2018-03-01T07:51:25.849Z,6.47
2018-03-01T07:53:53.337Z,7.17
2018-03-01T07:56:20.881Z,7.33
2018-03-01T07:58:48.323Z,7.40
2018-03-01T08:01:16.815Z,8.77
2018-03-01T08:03:44.277Z,5.97
2018-03-01T08:06:11.728Z,6.30
2018-03-01T08:08:39.184Z,7.43
2018-03-01T08:11:06.682Z,6.90
2018-03-01T08:13:34.149Z,6.60
2018-03-01T08:16:01.657Z,8.88
2018-03-01T08:18:29.115Z,7.30
2018-03-01T08:20:56.569Z,6.47
2018-03-01T08:23:24.045Z,5.80
2018-03-01T08:25:51.513Z,7.10
2018-03-01T08:28:19.041Z,7.20
2018-03-01T08:30:47.262Z,6.33
2018-03-01T08:33:14.725Z,6.43
2018-03-01T08:35:42.190Z,5.80
2018-03-01T08:38:09.720Z,6.70
2018-03-01T08:40:37.251Z,8.13
2018-03-01T08:43:05.751Z,6.20
2018-03-01T08:45:34.233Z,7.00
2018-03-01T08:48:01.693Z,6.30
2018-03-01T08:50:29.233Z,7.07
2018-03-01T08:52:57.717Z,5.40
2018-03-01T08:55:25.180Z,6.30
2018-03-01T08:57:52.627Z,7.43
2018-03-01T09:00:20.846Z,6.90
2018-03-01T09:02:48.286Z,7.20
2018-03-01T09:05:15.824Z,6.87
2018-03-01T09:07:43.262Z,7.70
2018-03-01T09:10:12.477Z,6.37
2018-03-01T09:12:39.928Z,6.80
2018-03-01T09:15:07.383Z,5.80
2018-03-01T09:17:35.657Z,6.87
2018-03-01T09:20:03.894Z,7.10
2018-03-01T09:22:31.374Z,7.63
2018-03-01T09:24:58.866Z,6.13
2018-03-01T09:27:26.302Z,5.87
2018-03-01T09:29:54.535Z,7.23
2018-03-01T09:32:22.055Z,9.50
2018-03-01T09:34:49.675Z,6.70
2018-03-01T09:37:17.168Z,7.37
2018-03-01T09:39:44.617Z,6.40
2018-03-01T09:42:13.274Z,7.27
2018-03-01T09:44:41.554Z,7.47
2018-03-01T09:47:09.048Z,7.43
2018-03-01T09:49:36.491Z,6.43
2018-03-01T09:52:04.779Z,8.23
2018-03-01T09:54:32.230Z,9.17
2018-03-01T09:56:59.695Z,8.53
2018-03-01T09:59:27.149Z,9.77
2018-03-01T10:01:55.457Z,7.77
2018-03-01T10:04:22.904Z,8.53
2018-03-01T10:06:50.380Z,7.90
2018-03-01T10:09:17.824Z,7.87
2018-03-01T10:11:45.275Z,8.77
2018-03-01T10:14:12.725Z,8.87
2018-03-01T10:16:40.188Z,8.10
2018-03-01T10:19:07.631Z,8.87
2018-03-01T10:21:35.079Z,8.87
2018-03-01T10:24:03.289Z,9.27
2018-03-01T10:26:30.728Z,9.10
2018-03-01T10:28:58.197Z,9.07
2018-03-01T10:31:25.636Z,8.97
2018-03-01T10:33:53.096Z,6.30
2018-03-01T10:36:20.553Z,8.37
2018-03-01T10:38:47.984Z,9.50
2018-03-01T10:41:16.218Z,8.63
2018-03-01T10:43:44.421Z,8.10
2018-03-01T10:46:11.965Z,8.73
2018-03-01T10:48:39.505Z,8.40
2018-03-01T10:51:07.013Z,9.83
2018-03-01T10:53:35.414Z,8.20
2018-03-01T10:56:03.615Z,7.90
2018-03-01T10:58:31.174Z,8.97
2018-03-01T11:00:59.649Z,8.90
2018-03-01T11:03:27.230Z,8.37
2018-03-01T11:05:54.679Z,9.40
2018-03-01T11:08:22.154Z,9.07
2018-03-01T11:10:49.593Z,8.50
2018-03-01T11:13:17.175Z,8.93
2018-03-01T11:15:47.323Z,8.87
2018-03-01T11:18:14.882Z,8.40
2018-03-01T11:20:42.437Z,9.57
2018-03-01T11:23:10.184Z,8.03
2018-03-01T11:25:39.018Z,8.80
2018-03-01T11:28:10.512Z,8.90
2018-03-01T11:30:38.489Z,8.83
2018-03-01T11:33:06.074Z,6.40
2018-03-01T11:35:33.522Z,6.70
2018-03-01T11:38:00.963Z,8.83
2018-03-01T11:40:28.430Z,9.53
2018-03-01T11:42:55.915Z,7.40
2018-03-01T11:45:23.389Z,9.03
2018-03-01T11:47:50.820Z,8.43
2018-03-01T11:50:19.052Z,7.40
2018-03-01T11:52:46.489Z,8.00
2018-03-01T11:55:13.927Z,9.63
2018-03-01T11:57:41.376Z,10.10
2018-03-01T12:00:09.614Z,8.00
2018-03-01T12:02:37.070Z,9.73
2018-03-01T12:05:04.535Z,9.20
2018-03-01T12:07:31.990Z,7.40
2018-03-01T12:09:59.445Z,8.93
2018-03-01T12:12:26.902Z,8.00
2018-03-01T12:14:54.388Z,8.37
2018-03-01T12:17:22.603Z,8.17
2018-03-01T12:19:50.134Z,8.97
2018-03-01T12:22:18.420Z,8.40
2018-03-01T12:24:45.866Z,9.03
2018-03-01T12:27:14.102Z,9.13
2018-03-01T12:29:41.564Z,9.00
2018-03-01T12:32:09.024Z,8.90
2018-03-01T12:34:36.475Z,7.80
2018-03-01T12:37:03.929Z,9.43
2018-03-01T12:39:31.390Z,9.00
2018-03-01T12:41:58.837Z,8.67
2018-03-01T12:44:27.048Z,8.73
2018-03-01T12:46:54.494Z,9.67
2018-03-01T12:49:21.960Z,9.80
2018-03-01T12:51:49.481Z,10.27
2018-03-01T12:54:17.832Z,9.73
2018-03-01T12:56:45.477Z,9.93
2018-03-01T12:59:12.942Z,8.77
2018-03-01T13:01:40.390Z,8.67
2018-03-01T13:04:08.605Z,8.70
2018-03-01T13:06:36.078Z,8.93
2018-03-01T13:09:03.604Z,10.27
2018-03-01T13:11:31.051Z,9.63
2018-03-01T13:13:58.508Z,8.77
2018-03-01T13:16:25.945Z,9.63
2018-03-01T13:18:54.190Z,9.17
2018-03-01T13:21:21.730Z,9.03
2018-03-01T13:23:49.257Z,9.77
2018-03-01T13:26:16.706Z,9.77
2018-03-01T13:28:44.926Z,8.80
2018-03-01T13:31:14.348Z,7.93
2018-03-01T13:36:50.489Z,8.80
2018-03-01T13:39:17.937Z,9.27
2018-03-01T13:41:45.377Z,9.50
2018-03-01T13:44:13.620Z,9.03
2018-03-01T13:46:41.521Z,7.90
2018-03-01T13:49:08.978Z,10.10
2018-03-01T13:51:37.189Z,8.13
2018-03-01T13:54:04.659Z,9.43
2018-03-01T13:56:32.182Z,9.37
2018-03-01T13:58:59.644Z,8.27
2018-03-01T14:01:27.154Z,9.90
2018-03-01T14:03:54.617Z,6.40
2018-03-01T14:06:24.036Z,9.20
2018-03-01T14:08:54.938Z,9.90
2018-03-01T14:11:22.392Z,9.63
2018-03-01T14:13:49.852Z,9.17
2018-03-01T14:16:17.321Z,7.47
2018-03-01T14:18:45.539Z,9.70
2018-03-01T14:21:24.714Z,7.87
2018-03-01T14:23:53.763Z,9.67
2018-03-01T14:26:21.255Z,9.87
2018-03-01T14:28:51.201Z,8.87
2018-03-01T14:31:18.659Z,8.90
2018-03-01T14:33:46.113Z,8.00
2018-03-01T14:36:13.620Z,9.13
2018-03-01T14:38:41.086Z,8.90
2018-03-01T14:41:08.536Z,9.20
2018-03-01T14:43:35.993Z,9.83
2018-03-01T14:46:03.430Z,8.63
2018-03-01T14:48:31.660Z,8.67
2018-03-01T14:50:59.111Z,8.60
2018-03-01T14:53:26.564Z,8.73
2018-03-01T14:55:54.034Z,8.87
2018-03-01T14:58:21.485Z,9.50
2018-03-01T15:00:48.927Z,9.87
2018-03-01T15:03:16.377Z,8.43
2018-03-01T15:05:43.817Z,9.90
2018-03-01T15:08:11.368Z,9.20
2018-03-01T15:10:39.581Z,8.70
2018-03-01T15:13:07.042Z,9.73
2018-03-01T15:15:34.488Z,8.50
2018-03-01T15:18:01.944Z,9.77
2018-03-01T15:20:29.399Z,10.73
2018-03-01T15:22:56.837Z,8.50
2018-03-01T15:25:24.297Z,8.30
2018-03-01T15:27:51.758Z,9.23
2018-03-01T15:30:20.025Z,9.10
2018-03-01T15:32:48.229Z,8.63
2018-03-01T15:35:15.688Z,9.67
2018-03-01T15:37:43.148Z,9.53
2018-03-01T15:40:10.609Z,8.57
2018-03-01T15:42:38.060Z,9.73
2018-03-01T15:45:05.528Z,9.63
2018-03-01T15:47:32.972Z,8.03
2018-03-01T15:50:00.471Z,10.10
2018-03-01T15:52:27.961Z,9.57
2018-03-01T15:54:56.420Z,10.40
2018-03-01T15:57:25.037Z,8.50
2018-03-01T15:59:52.500Z,11.27
2018-03-01T16:02:19.948Z,9.27
2018-03-01T16:04:47.400Z,8.90
2018-03-01T16:07:15.618Z,9.10
2018-03-01T16:09:43.129Z,9.47
2018-03-01T16:12:11.347Z,8.40
2018-03-01T16:14:39.571Z,10.50
2018-03-01T16:17:07.789Z,9.83
2018-03-01T16:19:35.485Z,11.43
2018-03-01T16:22:02.974Z,9.43
2018-03-01T16:24:31.235Z,10.30
2018-03-01T16:26:58.677Z,10.03
2018-03-01T16:29:26.130Z,8.90
2018-03-01T16:31:53.604Z,10.03
2018-03-01T16:34:21.064Z,10.57
2018-03-01T16:36:48.496Z,9.87
2018-03-01T16:39:15.946Z,10.47
2018-03-01T16:41:43.412Z,9.17
2018-03-01T16:44:10.871Z,9.10
2018-03-01T16:46:38.931Z,8.60
2018-03-01T16:49:06.379Z,8.30
2018-03-01T16:51:33.832Z,10.10
2018-03-01T16:54:01.495Z,9.73
2018-03-01T16:56:28.958Z,8.77
2018-03-01T16:58:56.452Z,8.90
2018-03-01T17:01:23.904Z,12.17
2018-03-01T17:03:51.395Z,11.17
2018-03-01T17:06:19.872Z,12.57
2018-03-01T17:08:48.106Z,11.00
2018-03-01T17:11:15.554Z,10.50
2018-03-01T17:13:43.009Z,13.37
2018-03-01T17:16:10.539Z,11.40
2018-03-01T17:18:38.000Z,11.20
2018-03-01T17:21:05.447Z,11.53
2018-03-01T17:23:32.902Z,10.73
2018-03-01T17:26:00.424Z,11.00
2018-03-01T17:28:27.964Z,10.57
2018-03-01T17:30:55.406Z,9.50
2018-03-01T17:33:23.010Z,9.00
2018-03-01T17:35:50.443Z,9.73
2018-03-01T17:38:17.952Z,10.60
2018-03-01T17:40:45.424Z,11.27
2018-03-01T17:43:12.910Z,11.30
2018-03-01T17:45:40.416Z,12.10
2018-03-01T17:48:08.649Z,10.90
2018-03-01T17:50:36.110Z,10.23
2018-03-01T17:53:03.569Z,11.47
2018-03-01T17:55:31.028Z,9.40
2018-03-01T17:57:58.477Z,11.80
2018-03-01T18:00:25.973Z,9.60
2018-03-01T18:02:53.388Z,9.60
2018-03-01T18:05:20.858Z,10.03
2018-03-01T18:07:49.893Z,10.83
2018-03-01T18:10:18.118Z,11.03
2018-03-01T18:12:45.562Z,11.20
2018-03-01T18:15:14.140Z,11.30
2018-03-01T18:17:41.586Z,11.30
2018-03-01T18:20:09.037Z,9.00
2018-03-01T18:22:36.480Z,11.40
2018-03-01T18:25:03.931Z,10.73
2018-03-01T18:27:32.145Z,11.00
2018-03-01T18:29:59.604Z,12.50
2018-03-01T18:32:27.053Z,12.17
2018-03-01T18:34:54.589Z,9.97
2018-03-01T18:37:22.025Z,11.73
2018-03-01T18:39:50.313Z,12.40
2018-03-01T18:42:18.581Z,11.67
2018-03-01T18:44:46.799Z,12.13
2018-03-01T18:47:14.253Z,12.47
2018-03-01T18:49:41.765Z,11.50
2018-03-01T18:52:10.057Z,11.50
2018-03-01T18:54:38.274Z,14.37
2018-03-01T18:57:05.729Z,11.00
2018-03-01T18:59:33.182Z,12.00
2018-03-01T19:02:00.653Z,11.90
2018-03-01T19:04:28.106Z,12.67
2018-03-01T19:06:55.556Z,13.50
2018-03-01T19:09:23.011Z,12.43
2018-03-01T19:11:50.505Z,13.67
2018-03-01T19:14:17.954Z,12.70
2018-03-01T19:16:45.398Z,12.57
2018-03-01T19:19:12.845Z,13.90
2018-03-01T19:21:40.301Z,11.13
2018-03-01T19:24:07.756Z,13.10
2018-03-01T19:26:35.216Z,13.03
2018-03-01T19:29:02.768Z,11.93
2018-03-01T19:31:30.228Z,12.50
2018-03-01T19:33:57.677Z,11.10
2018-03-01T19:36:25.127Z,13.53
2018-03-01T19:38:52.582Z,14.30
2018-03-01T19:41:20.028Z,12.93
2018-03-01T19:43:47.476Z,13.10
2018-03-01T19:46:15.702Z,13.07
2018-03-01T19:48:43.210Z,15.03
2018-03-01T19:51:11.435Z,12.80
2018-03-01T19:53:38.890Z,13.83
2018-03-01T19:56:06.349Z,13.17
2018-03-01T19:58:33.796Z,13.57
2018-03-01T20:01:01.254Z,15.73
2018-03-01T20:03:28.703Z,9.57
2018-03-01T20:05:56.176Z,15.60
2018-03-01T20:08:23.695Z,12.80
2018-03-01T20:10:52.040Z,15.00
2018-03-01T20:13:19.446Z,13.70
2018-03-01T20:15:46.909Z,14.17
2018-03-01T20:18:14.484Z,13.70
2018-03-01T20:20:42.930Z,12.67
2018-03-01T20:23:11.228Z,12.27
2018-03-01T20:25:38.690Z,15.80
2018-03-01T20:28:06.150Z,14.03
2018-03-01T20:30:34.654Z,13.87
2018-03-01T20:33:02.116Z,14.20
2018-03-01T20:35:29.569Z,13.20
2018-03-01T20:37:57.050Z,14.57
2018-03-01T20:40:24.507Z,14.00
2018-03-01T20:42:51.990Z,15.80
2018-03-01T20:45:20.211Z,13.50
2018-03-01T20:47:47.657Z,16.20
2018-03-01T20:50:15.112Z,14.93
2018-03-01T20:52:42.576Z,14.80
2018-03-01T20:55:10.041Z,15.40
2018-03-01T20:57:37.493Z,14.63
2018-03-01T21:00:04.960Z,14.13
2018-03-01T21:02:32.404Z,15.47
2018-03-01T21:04:59.934Z,15.77
2018-03-01T21:07:27.375Z,18.17
2018-03-01T21:09:55.600Z,16.03
2018-03-01T21:12:23.131Z,15.00
2018-03-01T21:14:50.586Z,14.23
2018-03-01T21:17:18.034Z,16.00
2018-03-01T21:19:45.511Z,15.00
2018-03-01T21:22:13.056Z,16.27
2018-03-01T21:24:40.498Z,15.10
2018-03-01T21:27:08.726Z,15.70
2018-03-01T21:29:36.168Z,14.40
2018-03-01T21:32:03.734Z,15.57
2018-03-01T21:34:31.184Z,16.83
2018-03-01T21:36:58.640Z,16.50
2018-03-01T21:39:26.086Z,14.77
2018-03-01T21:41:53.629Z,16.73
2018-03-01T21:44:21.073Z,17.70
2018-03-01T21:47:01.292Z,15.77
2018-03-01T21:49:28.749Z,16.67
2018-03-01T21:51:56.197Z,16.17
2018-03-01T21:54:23.662Z,15.50
2018-03-01T21:56:51.109Z,13.23
2018-03-01T21:59:18.634Z,16.27
2018-03-01T22:01:46.115Z,15.57
2018-03-01T22:04:14.292Z,15.50
2018-03-01T22:06:41.732Z,12.63
2018-03-01T22:09:09.198Z,15.80
2018-03-01T22:11:36.664Z,16.30
2018-03-01T22:14:04.118Z,16.27
2018-03-01T22:16:31.644Z,14.70
2018-03-01T22:18:59.993Z,12.27
2018-03-01T22:21:27.515Z,16.87
2018-03-01T22:23:55.040Z,15.63
2018-03-01T22:26:23.321Z,14.23
2018-03-01T22:28:51.544Z,17.00
2018-03-01T22:31:18.987Z,16.90
2018-03-01T22:33:46.435Z,16.23
2018-03-01T22:36:13.955Z,15.17
2018-03-01T22:38:42.244Z,15.70
2018-03-01T22:41:09.693Z,17.37
2018-03-01T22:43:37.914Z,15.40
2018-03-01T22:46:05.366Z,16.03
2018-03-01T22:48:32.812Z,15.40
2018-03-01T22:51:00.290Z,15.80
2018-03-01T22:53:27.742Z,15.63
2018-03-01T22:55:55.220Z,16.43
2018-03-01T22:58:23.477Z,15.50
2018-03-01T23:00:53.741Z,15.80
2018-03-01T23:03:21.190Z,15.00
2018-03-01T23:05:48.646Z,16.83
2018-03-01T23:08:16.084Z,16.80
2018-03-01T23:10:43.547Z,16.00
2018-03-01T23:13:10.989Z,15.53
2018-03-01T23:15:38.441Z,15.33
2018-03-01T23:18:05.882Z,16.13
2018-03-01T23:20:33.338Z,14.70
2018-03-01T23:23:01.562Z,15.80
2018-03-01T23:25:29.018Z,17.10
2018-03-01T23:27:56.478Z,15.30
2018-03-01T23:30:23.933Z,16.10
2018-03-01T23:32:51.384Z,16.97
2018-03-01T23:35:18.838Z,17.90
2018-03-01T23:37:46.299Z,18.77
2018-03-01T23:40:13.752Z,16.43
2018-03-01T23:42:41.212Z,16.37
2018-03-01T23:45:08.661Z,16.97
2018-03-01T23:47:36.108Z,16.40
2018-03-01T23:50:03.560Z,15.67
2018-03-01T23:52:31.010Z,15.00
2018-03-01T23:54:58.473Z,15.60
2018-03-01T23:57:25.930Z,16.60
2018-03-01T23:59:53.371Z,18.60
